Time;durP1;ratioP1;P1;durP2;ratioP2;P2;SDS_P1;SDS_P2;PMS_P1;PMS_P2;Temp;Humidity;BMP_temperature;BMP_pressure;BME280_temperature;BME280_humidity;BME280_pressure;Samples;Min_cycle;Max_cycle;Signal;HPM_P1;HPM_P2
2021/09/12 00:00:46;;;;;;;14.10;9.15;;;17.20;99.90;;;;;;5018605;28;20646;-80
2021/09/12 00:03:13;;;;;;;12.20;8.60;;;17.30;99.90;;;;;;5018044;28;20208;-80
2021/09/12 00:05:41;;;;;;;12.23;9.13;;;17.30;99.90;;;;;;5018938;28;20297;-80
2021/09/12 00:08:08;;;;;;;11.50;8.50;;;17.30;99.90;;;;;;5019808;28;20216;-80
2021/09/12 00:10:35;;;;;;;15.18;9.38;;;17.40;99.90;;;;;;5019823;28;20224;-80
2021/09/12 00:13:02;;;;;;;11.43;8.07;;;17.40;99.90;;;;;;5018779;28;20220;-80
2021/09/12 00:15:28;;;;;;;12.73;9.02;;;17.40;99.90;;;;;;5016608;28;20647;-79
2021/09/12 00:17:55;;;;;;;14.38;9.40;;;17.50;99.90;;;;;;5015657;28;20239;-80
2021/09/12 00:20:22;;;;;;;11.30;8.75;;;17.50;99.90;;;;;;5013091;28;21748;-80
2021/09/12 00:22:50;;;;;;;14.77;10.15;;;17.50;99.90;;;;;;5013365;28;20228;-81
2021/09/12 00:25:17;;;;;;;13.32;9.07;;;17.50;99.90;;;;;;5010974;28;20307;-80
2021/09/12 00:27:44;;;;;;;12.50;8.95;;;17.60;99.90;;;;;;5013353;28;20299;-80
2021/09/12 00:30:12;;;;;;;12.88;8.95;;;17.60;99.90;;;;;;5014831;28;20222;-81
2021/09/12 00:32:39;;;;;;;13.18;8.57;;;17.70;99.90;;;;;;5018763;28;20239;-81
2021/09/12 00:35:07;;;;;;;12.57;9.13;;;17.70;99.90;;;;;;5018817;28;20241;-80
2021/09/12 00:37:34;;;;;;;14.23;8.88;;;17.70;99.90;;;;;;5018990;28;20590;-81
2021/09/12 00:40:02;;;;;;;14.45;9.02;;;17.80;99.90;;;;;;5017454;28;20573;-81
2021/09/12 00:42:29;;;;;;;14.32;9.45;;;17.80;99.90;;;;;;5017454;28;20665;-80
2021/09/12 00:44:56;;;;;;;14.40;9.60;;;17.80;99.90;;;;;;5018762;28;20322;-81
2021/09/12 00:47:23;;;;;;;14.13;9.70;;;17.80;99.90;;;;;;5019018;28;20208;-80
2021/09/12 00:49:50;;;;;;;12.20;8.98;;;17.70;99.90;;;;;;5015217;28;20581;-80
2021/09/12 00:52:19;;;;;;;16.58;10.20;;;17.80;99.90;;;;;;5015411;28;20208;-80
2021/09/12 00:54:47;;;;;;;15.25;9.63;;;17.90;99.90;;;;;;5016131;28;20227;-80
2021/09/12 00:57:16;;;;;;;12.73;9.35;;;17.80;99.90;;;;;;5016819;28;20676;-80
2021/09/12 00:59:44;;;;;;;16.67;10.00;;;17.80;99.90;;;;;;5017124;28;20719;-81
2021/09/12 01:02:12;;;;;;;12.10;8.93;;;17.80;99.90;;;;;;5014037;28;20555;-80
2021/09/12 01:04:39;;;;;;;12.10;9.25;;;17.80;99.90;;;;;;5016997;28;20233;-81
2021/09/12 01:07:08;;;;;;;14.10;9.50;;;17.80;99.90;;;;;;5015787;28;20218;-81
2021/09/12 01:09:38;;;;;;;13.82;8.68;;;17.80;99.90;;;;;;5014992;28;20231;-80
2021/09/12 01:12:06;;;;;;;15.30;10.05;;;17.80;99.90;;;;;;5016044;28;20759;-81
2021/09/12 01:14:35;;;;;;;14.05;10.00;;;17.80;99.90;;;;;;5017521;28;20334;-81
2021/09/12 01:17:03;;;;;;;15.52;9.55;;;17.80;99.90;;;;;;5015228;28;20206;-81
2021/09/12 01:19:31;;;;;;;14.30;9.93;;;17.80;99.90;;;;;;5015892;28;20288;-80
2021/09/12 01:21:59;;;;;;;14.90;9.07;;;17.80;99.90;;;;;;5015633;28;20574;-81
2021/09/12 01:24:27;;;;;;;13.85;8.75;;;17.70;99.90;;;;;;5014455;28;20207;-81
2021/09/12 01:26:54;;;;;;;14.68;9.57;;;17.70;99.90;;;;;;5016641;28;20279;-80
2021/09/12 01:29:21;;;;;;;14.98;10.82;;;17.70;99.90;;;;;;5017204;28;20567;-81
2021/09/12 01:31:48;;;;;;;15.85;11.18;;;17.70;99.90;;;;;;5017240;28;20299;-80
2021/09/12 01:34:15;;;;;;;15.48;10.27;;;17.70;99.90;;;;;;5015549;28;20220;-81
2021/09/12 01:36:43;;;;;;;15.40;9.55;;;17.60;99.90;;;;;;5016508;28;20311;-81
2021/09/12 01:39:10;;;;;;;16.95;10.25;;;17.60;99.90;;;;;;5017024;28;20295;-81
2021/09/12 01:41:38;;;;;;;14.40;9.90;;;17.60;99.90;;;;;;5016509;28;20240;-82
2021/09/12 01:44:07;;;;;;;14.93;10.07;;;17.60;99.90;;;;;;5018362;28;20246;-81
2021/09/12 01:46:34;;;;;;;20.65;11.43;;;17.70;99.90;;;;;;5049460;22;20610;-88
2021/09/12 01:49:03;;;;;;;16.63;10.82;;;17.80;99.90;;;;;;5038360;28;20206;-88
2021/09/12 01:51:30;;;;;;;13.93;10.15;;;17.60;99.90;;;;;;5035859;28;20211;-87
2021/09/12 01:53:57;;;;;;;16.23;11.35;;;17.70;99.90;;;;;;5032902;28;20219;-88
2021/09/12 01:56:24;;;;;;;14.98;10.20;;;17.70;99.90;;;;;;5037127;28;20565;-87
2021/09/12 01:58:52;;;;;;;16.73;11.15;;;17.70;99.90;;;;;;5042293;28;20699;-88
2021/09/12 02:01:19;;;;;;;16.17;10.95;;;17.60;99.90;;;;;;5045658;28;20302;-88
2021/09/12 02:03:46;;;;;;;16.50;11.38;;;17.60;99.90;;;;;;5044119;28;20262;-88
2021/09/12 02:06:14;;;;;;;16.23;10.60;;;17.60;99.90;;;;;;5042730;28;20230;-87
2021/09/12 02:08:40;;;;;;;18.77;11.43;;;17.60;99.90;;;;;;5041951;28;20305;-88
2021/09/12 02:11:07;;;;;;;15.80;10.98;;;17.60;99.90;;;;;;5042011;28;20296;-88
2021/09/12 02:13:34;;;;;;;17.10;11.88;;;17.60;99.90;;;;;;5038217;28;20222;-87
2021/09/12 02:16:03;;;;;;;18.85;12.60;;;17.60;99.90;;;;;;5036644;28;20601;-88
2021/09/12 02:18:29;;;;;;;17.25;11.57;;;17.60;99.90;;;;;;5032770;28;20212;-85
2021/09/12 02:20:56;;;;;;;17.42;10.93;;;17.60;99.90;;;;;;5035743;28;20592;-88
2021/09/12 02:23:23;;;;;;;18.40;11.55;;;17.70;99.90;;;;;;5036978;28;20277;-87
2021/09/12 02:25:50;;;;;;;20.05;12.50;;;17.60;99.90;;;;;;5034589;28;20203;-87
2021/09/12 02:28:18;;;;;;;17.55;11.40;;;17.60;99.90;;;;;;5037122;28;20655;-89
2021/09/12 02:30:45;;;;;;;15.93;11.20;;;17.60;99.90;;;;;;5035156;28;20203;-87
2021/09/12 02:33:13;;;;;;;16.55;11.98;;;17.40;99.90;;;;;;5033725;28;20479;-87
2021/09/12 02:35:40;;;;;;;19.45;11.88;;;17.50;99.90;;;;;;5037745;28;20207;-88
2021/09/12 02:38:07;;;;;;;16.25;10.90;;;17.50;99.90;;;;;;5039617;28;20310;-88
2021/09/12 02:40:34;;;;;;;18.88;12.43;;;17.50;99.90;;;;;;5038972;28;20724;-87
2021/09/12 02:43:01;;;;;;;19.60;12.35;;;17.50;99.90;;;;;;5041714;28;20207;-88
2021/09/12 02:45:28;;;;;;;18.15;12.57;;;17.50;99.90;;;;;;5042025;28;20227;-87
2021/09/12 02:47:54;;;;;;;20.50;14.07;;;17.50;99.90;;;;;;5038808;28;20233;-88
2021/09/12 02:50:23;;;;;;;19.75;13.30;;;17.50;99.90;;;;;;5038021;28;20566;-87
2021/09/12 02:52:49;;;;;;;19.15;12.40;;;17.50;99.90;;;;;;5040132;28;20210;-88
2021/09/12 02:55:16;;;;;;;18.52;13.27;;;17.50;99.90;;;;;;5039440;28;20743;-88
2021/09/12 02:57:43;;;;;;;20.20;13.55;;;17.50;99.90;;;;;;5039543;28;20227;-88
2021/09/12 03:00:11;;;;;;;19.77;13.57;;;17.40;99.90;;;;;;5042019;28;20212;-88
2021/09/12 03:02:38;;;;;;;20.42;13.95;;;17.50;99.90;;;;;;5039293;28;20309;-90
2021/09/12 03:05:06;;;;;;;18.10;13.98;;;17.50;99.90;;;;;;5037670;28;20205;-88
2021/09/12 03:07:34;;;;;;;19.88;13.57;;;17.50;99.90;;;;;;5039496;28;20233;-87
2021/09/12 03:10:01;;;;;;;21.55;14.27;;;17.60;99.90;;;;;;5039798;28;20204;-88
2021/09/12 03:12:28;;;;;;;18.85;13.95;;;17.60;99.90;;;;;;5037105;28;20294;-87
2021/09/12 03:14:54;;;;;;;19.30;13.73;;;17.60;99.90;;;;;;5038159;28;20605;-87
2021/09/12 03:17:21;;;;;;;18.27;13.93;;;17.60;99.90;;;;;;5039101;28;20814;-87
2021/09/12 03:19:48;;;;;;;19.23;14.02;;;17.60;99.90;;;;;;5037229;28;20211;-89
2021/09/12 03:22:15;;;;;;;19.70;13.63;;;17.50;99.90;;;;;;5038014;28;20291;-88
2021/09/12 03:24:43;;;;;;;18.95;13.05;;;17.60;99.90;;;;;;5038291;28;20293;-88
2021/09/12 03:27:10;;;;;;;20.85;15.00;;;17.60;99.90;;;;;;5039398;28;20231;-88
2021/09/12 03:29:37;;;;;;;17.60;13.63;;;17.70;99.90;;;;;;5040340;28;20215;-88
2021/09/12 03:32:05;;;;;;;18.95;13.90;;;17.60;99.90;;;;;;5040888;28;20195;-87
2021/09/12 03:34:32;;;;;;;19.77;13.35;;;17.60;99.90;;;;;;5040664;28;20235;-88
2021/09/12 03:37:00;;;;;;;20.38;13.85;;;17.60;99.90;;;;;;5038720;28;20238;-88
2021/09/12 03:39:27;;;;;;;20.35;14.10;;;17.50;99.90;;;;;;5038745;28;20301;-88
2021/09/12 03:41:55;;;;;;;20.27;15.15;;;17.70;99.90;;;;;;5035169;28;20212;-87
2021/09/12 03:44:22;;;;;;;18.20;13.85;;;17.40;99.90;;;;;;5039347;28;20207;-88
2021/09/12 03:46:48;;;;;;;18.90;14.18;;;17.40;99.90;;;;;;5037306;28;20692;-87
2021/09/12 03:49:15;;;;;;;19.65;14.48;;;17.50;99.90;;;;;;5037962;28;20207;-87
2021/09/12 03:51:42;;;;;;;20.17;15.05;;;17.40;99.90;;;;;;5037812;28;20204;-88
2021/09/12 03:54:09;;;;;;;19.48;13.65;;;17.40;99.90;;;;;;5037719;28;20231;-87
2021/09/12 03:56:36;;;;;;;20.02;14.30;;;17.40;99.90;;;;;;5042535;28;20227;-88
2021/09/12 03:59:04;;;;;;;21.17;14.38;;;17.40;99.90;;;;;;5037465;28;20192;-87
2021/09/12 04:01:31;;;;;;;18.77;13.57;;;17.40;99.90;;;;;;5038035;28;20250;-88
2021/09/12 04:03:58;;;;;;;21.00;14.75;;;17.40;99.90;;;;;;5037648;28;20196;-87
2021/09/12 04:06:25;;;;;;;20.08;14.30;;;17.50;99.90;;;;;;5039672;28;20234;-87
2021/09/12 04:08:53;;;;;;;19.92;13.38;;;17.20;99.90;;;;;;5037278;28;20200;-87
2021/09/12 04:11:20;;;;;;;18.75;13.30;;;17.30;99.90;;;;;;5038918;28;20285;-88
2021/09/12 04:13:47;;;;;;;17.27;12.40;;;17.30;99.90;;;;;;5038623;28;20204;-88
2021/09/12 04:16:16;;;;;;;20.75;13.95;;;17.30;99.90;;;;;;5037071;28;20238;-88
2021/09/12 04:18:44;;;;;;;19.70;13.65;;;17.40;99.90;;;;;;5039582;28;20645;-86
2021/09/12 04:21:10;;;;;;;19.60;14.10;;;17.40;99.90;;;;;;5040488;28;20221;-88
2021/09/12 04:23:37;;;;;;;20.95;14.65;;;17.40;99.90;;;;;;5038845;28;20215;-87
2021/09/12 04:26:04;;;;;;;19.52;13.80;;;17.40;99.90;;;;;;5040174;28;20203;-87
2021/09/12 04:28:31;;;;;;;19.70;14.73;;;17.40;99.90;;;;;;5038775;28;20207;-87
2021/09/12 04:30:58;;;;;;;33.60;22.63;;;17.40;99.90;;;;;;5042723;28;20211;-87
2021/09/12 04:33:26;;;;;;;24.02;17.48;;;17.40;99.90;;;;;;5039566;28;20210;-87
2021/09/12 04:35:53;;;;;;;21.80;14.63;;;17.50;99.90;;;;;;5041188;28;20306;-87
2021/09/12 04:38:20;;;;;;;18.45;13.77;;;17.30;99.90;;;;;;5042080;28;20199;-88
2021/09/12 04:40:47;;;;;;;19.00;13.60;;;17.40;99.90;;;;;;5041567;28;20206;-87
2021/09/12 04:43:14;;;;;;;23.60;16.45;;;17.40;99.90;;;;;;5040258;28;20291;-87
2021/09/12 04:45:41;;;;;;;23.27;14.98;;;17.30;99.90;;;;;;5037308;28;20213;-87
2021/09/12 04:48:08;;;;;;;20.65;14.80;;;17.40;99.90;;;;;;5034569;28;20314;-88
2021/09/12 04:50:37;;;;;;;17.80;13.00;;;17.20;99.90;;;;;;5035631;28;20199;-87
2021/09/12 04:53:04;;;;;;;18.38;13.35;;;17.40;99.90;;;;;;5038215;28;20204;-87
2021/09/12 04:55:31;;;;;;;17.52;13.15;;;17.40;99.90;;;;;;5037052;28;20238;-87
2021/09/12 04:57:57;;;;;;;17.55;12.70;;;17.40;99.90;;;;;;5038374;28;20597;-87
2021/09/12 05:00:24;;;;;;;17.85;12.93;;;17.30;99.90;;;;;;5042374;28;20199;-87
2021/09/12 05:02:51;;;;;;;19.73;13.52;;;17.30;99.90;;;;;;5038283;28;20199;-87
2021/09/12 05:05:18;;;;;;;18.75;13.30;;;17.20;99.90;;;;;;5038241;28;20199;-88
2021/09/12 05:07:46;;;;;;;18.30;13.00;;;17.20;99.90;;;;;;5038843;28;20234;-88
2021/09/12 05:10:13;;;;;;;17.10;11.60;;;17.30;99.90;;;;;;5040403;28;20231;-88
2021/09/12 05:12:40;;;;;;;17.15;12.07;;;17.30;99.90;;;;;;5041726;28;20214;-88
2021/09/12 05:15:08;;;;;;;18.58;13.05;;;17.30;99.90;;;;;;5036938;28;20230;-88
2021/09/12 05:17:35;;;;;;;17.38;12.43;;;17.30;99.90;;;;;;5041371;28;20319;-88
2021/09/12 05:20:03;;;;;;;16.40;11.75;;;17.30;99.90;;;;;;5038785;28;20287;-87
2021/09/12 05:22:30;;;;;;;18.30;12.15;;;17.40;99.90;;;;;;5041234;28;20196;-88
2021/09/12 05:24:58;;;;;;;18.70;12.60;;;17.40;99.90;;;;;;5043145;28;20210;-88
2021/09/12 05:27:25;;;;;;;16.65;11.88;;;17.20;99.90;;;;;;5040133;28;20222;-88
2021/09/12 05:29:52;;;;;;;22.48;15.35;;;17.40;99.90;;;;;;5056232;28;20206;-90
2021/09/12 05:32:19;;;;;;;16.85;11.82;;;17.50;99.90;;;;;;5050581;28;20204;-88
2021/09/12 05:34:46;;;;;;;15.68;10.52;;;17.60;99.90;;;;;;5042574;28;20230;-88
2021/09/12 05:37:13;;;;;;;15.93;10.95;;;17.60;99.90;;;;;;5038398;28;20298;-88
2021/09/12 05:39:40;;;;;;;15.77;11.50;;;17.60;99.90;;;;;;5037933;28;20211;-88
2021/09/12 05:42:08;;;;;;;14.73;10.07;;;17.60;99.90;;;;;;5035156;28;20217;-88
2021/09/12 05:44:35;;;;;;;15.20;10.05;;;17.70;99.90;;;;;;5035492;28;20204;-87
2021/09/12 05:47:02;;;;;;;16.10;11.45;;;17.60;99.90;;;;;;5033691;28;20637;-87
2021/09/12 05:49:29;;;;;;;15.00;9.75;;;17.70;99.90;;;;;;5035923;28;20213;-87
2021/09/12 05:51:56;;;;;;;15.85;10.57;;;17.70;99.90;;;;;;5035729;28;20290;-87
2021/09/12 05:54:23;;;;;;;16.63;10.82;;;17.80;99.90;;;;;;5035647;28;20227;-87
2021/09/12 05:56:50;;;;;;;18.80;11.20;;;17.90;99.90;;;;;;5036439;28;20576;-89
2021/09/12 05:59:18;;;;;;;16.05;10.32;;;17.90;99.90;;;;;;5037651;28;20204;-87
2021/09/12 06:01:45;;;;;;;17.85;10.55;;;17.90;99.90;;;;;;5037613;28;20191;-87
2021/09/12 06:04:12;;;;;;;16.33;9.95;;;18.00;99.90;;;;;;5041630;28;20234;-88
2021/09/12 06:06:39;;;;;;;15.27;11.40;;;18.00;99.90;;;;;;5040184;28;20234;-88
2021/09/12 06:09:06;;;;;;;16.40;10.88;;;18.00;99.90;;;;;;5038440;28;20503;-88
2021/09/12 06:11:33;;;;;;;16.48;11.43;;;17.90;99.90;;;;;;5037731;28;20286;-87
2021/09/12 06:14:00;;;;;;;19.00;11.70;;;18.00;99.90;;;;;;5038559;28;20205;-87
2021/09/12 06:16:30;;;;;;;19.00;12.15;;;18.00;99.90;;;;;;5041298;28;20305;-87
2021/09/12 06:18:57;;;;;;;19.05;11.13;;;18.00;99.90;;;;;;5040026;28;20208;-87
2021/09/12 06:21:23;;;;;;;16.92;11.43;;;18.10;99.90;;;;;;5044622;28;20267;-88
2021/09/12 06:23:50;;;;;;;19.77;12.82;;;18.10;99.90;;;;;;5046842;28;20298;-87
2021/09/12 06:26:17;;;;;;;17.15;11.82;;;18.10;99.90;;;;;;5039438;28;20233;-88
2021/09/12 06:28:44;;;;;;;17.23;11.95;;;18.20;99.90;;;;;;5039562;28;20206;-87
2021/09/12 06:31:11;;;;;;;17.50;12.32;;;18.20;99.90;;;;;;5044061;28;20198;-88
2021/09/12 06:33:40;;;;;;;20.40;12.75;;;18.10;99.90;;;;;;5036284;28;20196;-87
2021/09/12 06:36:07;;;;;;;19.27;12.57;;;18.20;99.90;;;;;;5039234;28;20214;-87
2021/09/12 06:38:33;;;;;;;18.05;11.88;;;18.20;99.90;;;;;;5038376;28;20207;-87
2021/09/12 06:41:01;;;;;;;18.15;12.77;;;18.10;99.90;;;;;;5034098;28;20204;-87
2021/09/12 06:43:28;;;;;;;17.15;11.52;;;18.30;99.90;;;;;;5035727;28;20289;-87
2021/09/12 06:45:55;;;;;;;18.42;12.70;;;18.20;99.90;;;;;;5037344;28;20198;-86
2021/09/12 06:48:22;;;;;;;17.92;11.80;;;18.30;99.90;;;;;;5045862;28;20218;-88
2021/09/12 06:50:51;;;;;;;20.33;13.27;;;18.40;99.90;;;;;;5035783;28;20199;-88
2021/09/12 06:53:18;;;;;;;20.55;12.93;;;18.40;99.90;;;;;;5037362;28;20206;-87
2021/09/12 06:55:45;;;;;;;19.85;12.90;;;18.50;99.90;;;;;;5043873;28;20310;-89
2021/09/12 06:58:12;;;;;;;21.73;13.50;;;18.40;99.90;;;;;;5034870;28;20236;-86
2021/09/12 07:00:39;;;;;;;22.27;13.95;;;18.50;99.90;;;;;;5040139;28;20237;-87
2021/09/12 07:03:06;;;;;;;22.80;13.40;;;18.60;99.90;;;;;;5039505;28;20582;-88
2021/09/12 07:05:33;;;;;;;20.45;13.15;;;18.60;99.90;;;;;;5038489;28;20583;-87
2021/09/12 07:08:01;;;;;;;19.73;12.85;;;18.70;99.90;;;;;;5043636;28;20306;-88
2021/09/12 07:10:28;;;;;;;22.58;14.38;;;18.80;99.90;;;;;;5041706;28;20287;-88
2021/09/12 07:12:55;;;;;;;21.35;13.43;;;18.80;99.90;;;;;;5039162;28;20234;-89
2021/09/12 07:15:24;;;;;;;20.75;13.38;;;18.90;99.90;;;;;;5034184;28;20692;-89
2021/09/12 07:17:51;;;;;;;21.15;14.32;;;18.90;99.90;;;;;;5036437;28;20316;-89
2021/09/12 07:20:18;;;;;;;21.08;13.57;;;19.00;99.90;;;;;;5036657;28;20291;-87
2021/09/12 07:22:47;;;;;;;21.55;14.63;;;18.90;99.90;;;;;;5036488;28;20521;-89
2021/09/12 07:25:16;;;;;;;21.23;13.80;;;19.00;99.90;;;;;;5040436;28;20477;-90
2021/09/12 07:27:43;;;;;;;22.27;14.20;;;19.00;99.90;;;;;;5043923;28;20237;-91
2021/09/12 07:30:11;;;;;;;21.63;14.40;;;19.00;99.90;;;;;;5048286;28;20202;-90
2021/09/12 07:32:39;;;;;;;20.73;13.13;;;18.90;99.90;;;;;;5042025;28;20577;-89
2021/09/12 07:35:06;;;;;;;21.05;12.60;;;18.80;99.90;;;;;;5047462;28;20215;-91
2021/09/12 07:37:35;;;;;;;17.02;10.60;;;18.80;99.90;;;;;;5042083;28;20231;-92
2021/09/12 07:40:02;;;;;;;13.02;8.55;;;18.70;99.90;;;;;;5042051;28;20294;-90
2021/09/12 07:42:30;;;;;;;12.68;8.27;;;18.30;99.90;;;;;;5042285;28;20712;-89
2021/09/12 07:44:57;;;;;;;13.00;8.63;;;18.10;99.90;;;;;;5044217;28;20286;-89
2021/09/12 07:47:24;;;;;;;12.98;8.40;;;18.10;99.90;;;;;;5055787;23;20310;-82
2021/09/12 07:49:51;;;;;;;11.93;7.05;;;18.10;99.90;;;;;;5028664;28;20505;-82
2021/09/12 07:52:18;;;;;;;13.07;7.72;;;17.90;99.90;;;;;;5032334;28;20525;-81
2021/09/12 07:54:45;;;;;;;8.85;6.07;;;18.00;99.90;;;;;;5030309;28;20207;-81
2021/09/12 07:57:12;;;;;;;6.97;5.70;;;18.00;99.90;;;;;;5029262;28;20290;-81
2021/09/12 07:59:40;;;;;;;8.55;5.75;;;17.90;99.90;;;;;;5033396;28;20291;-80
2021/09/12 08:02:07;;;;;;;9.70;5.60;;;17.80;99.90;;;;;;5027606;28;20206;-80
2021/09/12 08:04:34;;;;;;;7.68;5.88;;;17.90;99.90;;;;;;5031901;28;20212;-80
2021/09/12 08:07:01;;;;;;;8.48;5.70;;;17.90;99.90;;;;;;5025167;28;20291;-80
2021/09/12 08:09:28;;;;;;;8.93;5.30;;;18.00;99.90;;;;;;5030798;28;20220;-80
2021/09/12 08:11:55;;;;;;;8.15;5.85;;;18.10;99.90;;;;;;5019949;28;20203;-80
2021/09/12 08:14:22;;;;;;;6.82;5.57;;;18.10;99.90;;;;;;5033265;28;20195;-80
2021/09/12 08:16:51;;;;;;;10.07;7.07;;;18.10;99.90;;;;;;5030846;28;20228;-81
2021/09/12 08:19:18;;;;;;;8.10;5.72;;;18.20;99.90;;;;;;5028879;28;20228;-80
2021/09/12 08:21:45;;;;;;;6.25;5.25;;;18.10;99.90;;;;;;5032896;28;20213;-82
2021/09/12 08:24:12;;;;;;;5.78;5.18;;;18.10;99.90;;;;;;5031865;28;20694;-82
2021/09/12 08:26:39;;;;;;;5.53;4.05;;;18.10;99.90;;;;;;5033905;28;20251;-82
2021/09/12 08:29:06;;;;;;;6.30;5.05;;;18.10;99.90;;;;;;5026777;28;20200;-80
2021/09/12 08:31:33;;;;;;;7.05;5.03;;;18.10;99.90;;;;;;5030828;28;20290;-81
2021/09/12 08:34:01;;;;;;;5.65;5.00;;;18.20;99.90;;;;;;5030071;28;20212;-80
2021/09/12 08:36:28;;;;;;;6.22;5.03;;;18.30;99.90;;;;;;5030146;28;20320;-81
2021/09/12 08:38:55;;;;;;;6.10;4.72;;;18.40;99.90;;;;;;5032002;28;20227;-81
2021/09/12 08:41:22;;;;;;;5.68;5.07;;;18.30;99.90;;;;;;5035322;28;20310;-81
2021/09/12 08:43:49;;;;;;;6.45;5.40;;;18.30;99.90;;;;;;5028441;28;20247;-81
2021/09/12 08:46:17;;;;;;;6.30;4.97;;;18.40;99.90;;;;;;5031856;28;20255;-81
2021/09/12 08:48:44;;;;;;;7.78;5.85;;;18.30;99.90;;;;;;5035930;28;20322;-81
2021/09/12 08:51:13;;;;;;;7.13;5.53;;;18.50;99.90;;;;;;5036894;28;20262;-83
2021/09/12 08:53:40;;;;;;;7.43;5.00;;;18.70;99.90;;;;;;5030184;28;20204;-81
2021/09/12 08:56:07;;;;;;;7.57;6.10;;;18.60;99.90;;;;;;5030587;28;20230;-81
2021/09/12 08:58:34;;;;;;;8.68;6.22;;;18.70;99.90;;;;;;5032311;28;20229;-81
2021/09/12 09:01:02;;;;;;;6.25;4.75;;;18.80;99.90;;;;;;5031041;28;20711;-81
2021/09/12 09:03:34;;;;;;;5.65;4.50;;;18.70;99.90;;;;;;5029436;28;20214;-81
2021/09/12 09:06:13;;;;;;;5.30;4.53;;;18.70;99.90;;;;;;5029354;28;20235;-81
2021/09/12 09:08:54;;;;;;;4.80;4.28;;;18.60;99.90;;;;;;5028983;28;20212;-81
2021/09/12 09:11:32;;;;;;;5.18;4.57;;;18.60;99.90;;;;;;5027689;28;20196;-81
2021/09/12 09:14:13;;;;;;;5.95;4.75;;;18.80;99.90;;;;;;5029291;28;20207;-81
2021/09/12 09:16:41;;;;;;;5.10;4.20;;;18.80;99.90;;;;;;5032359;28;20338;-81
2021/09/12 09:19:09;;;;;;;4.90;4.38;;;18.70;99.90;;;;;;5025464;28;20200;-80
2021/09/12 09:21:39;;;;;;;6.10;4.57;;;18.60;99.90;;;;;;5029491;28;20203;-81
2021/09/12 09:24:15;;;;;;;4.07;3.67;;;18.50;99.90;;;;;;5024062;28;20544;-81
2021/09/12 09:26:43;;;;;;;4.63;4.00;;;18.60;99.90;;;;;;5027203;28;20283;-81
2021/09/12 09:29:11;;;;;;;5.18;4.30;;;18.50;99.90;;;;;;5027963;28;20291;-81
2021/09/12 09:31:38;;;;;;;5.25;4.05;;;18.70;99.90;;;;;;5021759;28;20208;-81
2021/09/12 09:34:16;;;;;;;5.65;4.65;;;18.70;99.90;;;;;;5027600;28;20203;-81
2021/09/12 09:36:44;;;;;;;4.70;4.20;;;18.60;99.90;;;;;;5025882;28;20223;-81
2021/09/12 09:39:11;;;;;;;7.47;4.72;;;18.60;99.90;;;;;;5027525;28;20287;-80
2021/09/12 09:41:39;;;;;;;4.68;4.28;;;18.80;99.90;;;;;;5022547;28;20224;-81
2021/09/12 09:44:12;;;;;;;6.95;5.22;;;18.80;99.90;;;;;;5025407;28;20218;-81
2021/09/12 09:46:40;;;;;;;8.88;6.32;;;18.90;99.90;;;;;;5022812;28;20474;-81
2021/09/12 09:49:23;;;;;;;10.15;6.68;;;18.70;99.90;;;;;;5022331;28;20199;-81
2021/09/12 09:51:53;;;;;;;11.73;7.50;;;19.00;99.90;;;;;;5013879;28;20217;-82
2021/09/12 09:54:21;;;;;;;11.13;8.77;;;19.10;99.90;;;;;;5018347;28;20200;-81
2021/09/12 09:56:49;;;;;;;11.50;7.97;;;19.10;99.90;;;;;;5023892;28;20312;-82
2021/09/12 09:59:17;;;;;;;12.48;9.50;;;19.30;99.90;;;;;;5021260;28;20270;-81
2021/09/12 10:01:49;;;;;;;13.20;9.30;;;19.50;99.90;;;;;;5018556;28;20299;-80
2021/09/12 10:04:18;;;;;;;12.80;9.43;;;19.30;99.90;;;;;;5019441;28;20400;-80
2021/09/12 10:06:45;;;;;;;14.18;9.73;;;19.50;99.90;;;;;;5020190;28;20231;-80
2021/09/12 10:09:15;;;;;;;14.65;9.23;;;19.40;99.90;;;;;;5016502;28;20238;-79
2021/09/12 10:11:45;;;;;;;14.15;9.30;;;19.40;99.90;;;;;;5018202;28;20772;-80
2021/09/12 10:14:17;;;;;;;13.02;9.73;;;19.50;99.90;;;;;;5018584;28;20261;-80
2021/09/12 10:16:44;;;;;;;13.63;9.38;;;19.60;99.90;;;;;;5018251;28;20280;-80
2021/09/12 10:19:11;;;;;;;18.42;9.85;;;19.70;99.90;;;;;;5014848;28;20203;-80
2021/09/12 10:21:38;;;;;;;14.48;10.10;;;19.40;99.90;;;;;;5018327;28;20245;-81
2021/09/12 10:24:07;;;;;;;12.57;9.07;;;19.50;99.90;;;;;;5020255;28;20203;-81
2021/09/12 10:26:40;;;;;;;15.75;9.75;;;19.50;99.90;;;;;;5016284;28;20594;-81
2021/09/12 10:29:46;;;;;;;15.05;9.85;;;19.80;99.90;;;;;;5012322;28;20216;-81
2021/09/12 10:32:33;;;;;;;16.30;10.20;;;19.70;99.90;;;;;;5015774;28;20211;-81
2021/09/12 10:35:19;;;;;;;15.13;9.95;;;19.80;99.90;;;;;;5016655;28;20297;-81
2021/09/12 10:38:05;;;;;;;13.73;10.18;;;20.20;99.90;;;;;;5013486;28;20816;-82
2021/09/12 10:41:23;;;;;;;15.57;9.98;;;20.20;99.90;;;;;;5017962;28;20552;-81
2021/09/12 10:43:53;;;;;;;13.85;8.43;;;20.40;99.90;;;;;;5018635;28;20214;-81
2021/09/12 10:46:30;;;;;;;13.20;9.50;;;20.60;99.90;;;;;;5019085;28;20215;-81
2021/09/12 10:49:09;;;;;;;13.77;8.93;;;20.60;99.90;;;;;;5018634;28;20229;-81
2021/09/12 10:51:38;;;;;;;12.52;8.93;;;20.80;99.90;;;;;;5017180;28;20208;-81
2021/09/12 10:54:05;;;;;;;12.90;8.45;;;20.90;99.90;;;;;;5017159;28;20217;-81
2021/09/12 10:56:32;;;;;;;12.40;7.68;;;21.40;99.90;;;;;;5018381;28;20444;-81
2021/09/12 10:59:02;;;;;;;10.93;7.50;;;21.50;99.90;;;;;;5021033;28;20207;-81
2021/09/12 11:01:31;;;;;;;8.35;6.60;;;21.60;99.90;;;;;;5021162;28;20247;-82
2021/09/12 11:03:59;;;;;;;12.18;6.60;;;21.60;99.90;;;;;;5014784;28;20261;-82
2021/09/12 11:06:27;;;;;;;8.95;6.95;;;22.00;99.90;;;;;;5021596;28;20228;-81
2021/09/12 11:08:54;;;;;;;10.45;6.65;;;22.20;99.90;;;;;;5022812;28;20215;-84
2021/09/12 11:11:23;;;;;;;10.18;6.50;;;22.60;99.90;;;;;;5018857;28;20275;-83
2021/09/12 11:13:52;;;;;;;8.98;6.32;;;23.00;99.90;;;;;;5026017;28;20265;-83
2021/09/12 11:16:22;;;;;;;9.52;6.55;;;23.10;99.90;;;;;;5023524;28;20234;-83
2021/09/12 11:18:51;;;;;;;10.32;5.43;;;22.50;99.90;;;;;;5025672;28;20479;-82
2021/09/12 11:21:26;;;;;;;9.52;6.20;;;22.40;99.90;;;;;;5029260;28;20704;-82
2021/09/12 11:24:01;;;;;;;8.10;5.65;;;22.10;99.90;;;;;;5025186;28;20270;-82
2021/09/12 11:26:29;;;;;;;6.47;5.20;;;22.00;99.90;;;;;;5023908;28;20247;-82
2021/09/12 11:29:05;;;;;;;9.57;5.72;;;22.20;99.90;;;;;;5020370;28;20207;-83
2021/09/12 11:31:37;;;;;;;10.35;5.70;;;22.00;99.90;;;;;;5018653;28;20219;-83
2021/09/12 11:34:07;;;;;;;8.80;5.60;;;22.10;99.90;;;;;;5019985;28;20215;-85
2021/09/12 11:36:49;;;;;;;6.97;4.88;;;22.70;99.90;;;;;;5021559;28;20263;-82
2021/09/12 11:39:19;;;;;;;6.40;4.57;;;22.80;99.90;;;;;;5019301;28;20288;-85
2021/09/12 11:41:47;;;;;;;7.60;4.63;;;23.00;99.90;;;;;;5017860;28;20204;-81
2021/09/12 11:44:16;;;;;;;6.28;4.43;;;22.60;99.90;;;;;;5019339;28;20203;-81
2021/09/12 11:46:46;;;;;;;6.55;4.60;;;22.70;99.90;;;;;;5015769;28;20747;-82
2021/09/12 11:49:17;;;;;;;6.53;4.20;;;22.60;99.90;;;;;;5020067;28;20624;-81
2021/09/12 11:51:47;;;;;;;7.55;4.10;;;22.60;99.90;;;;;;5029052;28;20199;-80
2021/09/12 11:54:21;;;;;;;7.78;4.22;;;23.00;99.90;;;;;;5021232;28;20310;-81
2021/09/12 11:57:00;;;;;;;8.93;4.05;;;23.00;99.90;;;;;;5017302;28;20227;-81
2021/09/12 11:59:32;;;;;;;6.97;3.75;;;22.70;99.90;;;;;;5018728;28;20223;-81
2021/09/12 12:02:05;;;;;;;6.00;3.75;;;22.80;99.90;;;;;;5021579;28;20200;-82
2021/09/12 12:04:37;;;;;;;4.45;3.55;;;22.80;99.90;;;;;;5025205;28;20294;-80
2021/09/12 12:07:08;;;;;;;8.23;3.97;;;22.90;99.90;;;;;;5023665;28;20255;-82
2021/09/12 12:09:43;;;;;;;4.15;3.17;;;23.00;99.90;;;;;;5027053;28;20215;-83
2021/09/12 12:12:13;;;;;;;7.93;3.30;;;22.70;99.90;;;;;;5025202;28;20227;-82
2021/09/12 12:14:51;;;;;;;4.80;3.10;;;23.10;99.90;;;;;;5024826;28;20553;-81
2021/09/12 12:17:22;;;;;;;6.00;3.67;;;23.10;99.90;;;;;;5020323;28;20452;-82
2021/09/12 12:19:50;;;;;;;6.30;3.65;;;23.10;99.90;;;;;;5022409;28;20215;-81
2021/09/12 12:22:19;;;;;;;4.78;3.13;;;22.80;99.90;;;;;;5023330;28;20212;-82
2021/09/12 12:24:48;;;;;;;3.75;2.80;;;22.90;99.90;;;;;;5018091;28;20218;-81
2021/09/12 12:27:18;;;;;;;4.82;3.05;;;23.00;99.90;;;;;;5023036;28;20203;-81
2021/09/12 12:29:45;;;;;;;6.28;2.97;;;23.30;99.90;;;;;;5022224;28;20199;-81
2021/09/12 12:32:14;;;;;;;6.35;3.10;;;23.20;99.90;;;;;;5027290;28;20682;-81
2021/09/12 12:34:45;;;;;;;5.82;3.55;;;23.10;99.90;;;;;;5024583;28;20294;-80
2021/09/12 12:37:13;;;;;;;7.38;2.95;;;22.80;99.90;;;;;;5026660;28;20238;-82
2021/09/12 12:39:41;;;;;;;4.85;3.10;;;22.70;99.90;;;;;;5027911;28;20214;-82
2021/09/12 12:42:08;;;;;;;4.82;3.35;;;22.70;99.90;;;;;;5026610;28;20220;-80